Aérodrome :
LOGIN :

S'inscrire | Disclaimer

   EN    FR    IT 

 










Légende :    VFR   VFR Marginal   IFR   IFR Intensif   IFR Très Intensif
Visi : 
Plafond : 
>= 8 km
>= 3000ft
5 à 8 km
1000 à 3000 ft
1500m à 5 km
500 à 1000 ft
800 à 1500m
200 à 500 ft
< 800m
< 200 ft
Symboles :   Orages  Brouillard  Fortes neiges  Fortes précipitations  Vent > 20 kt
SIGMETs :   Divers  Orages  Givrage  Turbulence  Onde Orograph.  Cendres Volcan.







- Altitude de l'aérodrome : 15 ft
- Code IATA : BHD
- Voir les cartes d'approche


EGAC - George Best Belfast City

DERNIER METAR :
  • 221750Z AUTO 21010KT 9999 BKN035/// 08/06 Q1011

METARs EXPIRÉS :
  • 221720Z AUTO 22010KT 9999 BKN037/// 08/06 Q1011
  • 221650Z AUTO 21011KT 9999 BKN038/// 08/06 Q1010
  • 221620Z AUTO 23012KT 9999 BKN037/// 08/06 Q1010
  • 221550Z AUTO 23010KT 9999 FEW028/// OVC038/// 08/06 Q1010
  • 221520Z AUTO 23009KT 9999 OVC036/// 08/06 Q1010

TAF TAF EGAC
Valide du 22 à 18h jusqu'au 22 à 22h UTC


221657Z 2218/2222 21012KT 9999 BKN035
ATIS : +44 02890 935 124
Pas de NOTAMs connus pour ce terrain.



MET'MAP, la Météo Aéronautique d'un coup d'oeil ! - Copyright ORBIFLY Décembre 2007 - Disclaimer

ORBIFLY MET'MAP TEAM :

Programmation & Développement : Alexandra Zaïnal
Conception & Développement : Baudouin d'Aumeries
Co-Programmation & Développement : Marc-Olivier Méhu
Soutien technique & logistique : Manuel Goepfert

Contact : metmap@orbifly.com




SOURCES & CREDITS :

   NOAA